Terminal Aerodrome Forecast
Issued by NWS

Home | Current Version | Previous Version | Text Only | Print | Product List | Glossary On
Versions: 1 2 3 4 5 6 7 8 9 10 11 12 13 14 15 16 17
000
FTAK31 PAJN 291126
TAFAKT
TAF
PAKT 291126Z 2912/3012 14015G25KT P6SM -RA FEW008 SCT015 OVC025
      TEMPO 2912/2916 14010KT 3SM -RA BR SCT006 OVC010
     FM291600 14008KT P6SM -RA FEW008 SCT015 OVC025
      TEMPO 2916/2918 14008G18KT 3SM -RA BR SCT006 OVC010
     FM292200 14007KT P6SM VCSH BKN025 OVC035
     FM300200 13005KT P6SM -SHRA OVC025
      AMD LTD TO CLD VIS AND WIND TIL 291500=

USA.gov is the U.S. government's official web portal to all federal, state and local government web resources and services.